createdAt,value
2023-05-01T00:00:42.531Z,101601.19
2023-05-01T00:03:11.228Z,101595.91
2023-05-01T00:05:39.792Z,101596.50
2023-05-01T00:08:08.268Z,101591.34
2023-05-01T00:10:37.552Z,101586.75
2023-05-01T00:13:06.533Z,101584.63
2023-05-01T00:15:35.529Z,101576.03
2023-05-01T00:18:03.993Z,101581.56
2023-05-01T00:20:32.466Z,101578.41
2023-05-01T00:23:00.923Z,101574.22
2023-05-01T00:25:29.376Z,101567.78
2023-05-01T00:27:59.686Z,101568.56
2023-05-01T00:30:28.603Z,101564.59
2023-05-01T00:32:57.122Z,101561.06
2023-05-01T00:35:25.730Z,101555.97
2023-05-01T00:37:54.146Z,101563.94
2023-05-01T00:40:22.802Z,101557.72
2023-05-01T00:42:51.369Z,101552.53
2023-05-01T00:45:20.052Z,101556.03
2023-05-01T00:47:48.557Z,101548.81
2023-05-01T00:50:18.331Z,101547.81
2023-05-01T00:52:46.830Z,101537.56
2023-05-01T00:55:15.509Z,101536.78
2023-05-01T00:57:43.868Z,101531.34
2023-05-01T01:00:13.121Z,101521.09
2023-05-01T01:02:41.732Z,101532.09
2023-05-01T01:05:10.176Z,101516.69
2023-05-01T01:07:59.176Z,101515.09
2023-05-01T01:10:31.097Z,101508.47
2023-05-01T01:13:08.390Z,101512.00
2023-05-01T01:16:04.083Z,101506.47
2023-05-01T01:18:58.171Z,101503.47
2023-05-01T01:21:32.279Z,101510.50
2023-05-01T01:24:22.314Z,101499.75
2023-05-01T01:27:25.394Z,101496.09
2023-05-01T01:30:25.931Z,101490.31
2023-05-01T01:33:32.388Z,101481.53
2023-05-01T01:36:07.429Z,101476.28
2023-05-01T01:38:58.159Z,101469.59
2023-05-01T01:41:31.623Z,101473.09
2023-05-01T01:44:10.630Z,101466.41
2023-05-01T01:46:42.260Z,101461.31
2023-05-01T01:49:19.478Z,101463.44
2023-05-01T01:51:52.831Z,101460.34
2023-05-01T01:54:27.908Z,101450.63
2023-05-01T01:56:59.495Z,101454.03
2023-05-01T01:59:33.604Z,101453.16
2023-05-01T02:02:03.961Z,101449.59
2023-05-01T02:04:33.507Z,101438.06
2023-05-01T02:07:04.146Z,101443.63
2023-05-01T02:09:34.794Z,101449.25
2023-05-01T02:12:07.074Z,101435.94
2023-05-01T02:14:36.719Z,101434.16
2023-05-01T02:17:05.994Z,101432.69
2023-05-01T02:19:34.808Z,101428.66
2023-05-01T02:22:04.551Z,101435.44
2023-05-01T02:24:34.476Z,101426.41
2023-05-01T02:27:12.444Z,101423.91
2023-05-01T02:29:41.242Z,101422.59
2023-05-01T02:32:09.804Z,101413.19
2023-05-01T02:34:38.294Z,101421.88
2023-05-01T02:37:11.016Z,101414.00
2023-05-01T02:39:40.137Z,101409.59
2023-05-01T02:42:10.170Z,101409.75
2023-05-01T02:44:44.209Z,101406.22
2023-05-01T02:47:17.984Z,101404.34
2023-05-01T02:49:48.047Z,101405.41
2023-05-01T02:52:18.350Z,101396.66
2023-05-01T02:54:47.152Z,101384.50
2023-05-01T02:57:17.546Z,101385.44
2023-05-01T02:59:46.478Z,101389.97
2023-05-01T03:02:15.882Z,101389.38
2023-05-01T03:04:44.498Z,101375.09
2023-05-01T03:07:12.950Z,101377.69
2023-05-01T03:09:41.448Z,101377.97
2023-05-01T03:12:09.810Z,101369.38
2023-05-01T03:14:38.358Z,101367.56
2023-05-01T03:17:07.072Z,101368.75
2023-05-01T03:19:36.955Z,101360.34
2023-05-01T03:22:05.389Z,101365.09
2023-05-01T03:24:34.395Z,101353.66
2023-05-01T03:27:02.862Z,101358.56
2023-05-01T03:29:31.280Z,101352.81
2023-05-01T03:32:00.280Z,101349.13
2023-05-01T03:34:28.876Z,101343.19
2023-05-01T03:36:57.390Z,101343.28
2023-05-01T03:39:25.869Z,101343.16
2023-05-01T03:41:54.270Z,101348.88
2023-05-01T03:44:22.767Z,101337.59
2023-05-01T03:46:51.179Z,101344.13
2023-05-01T03:49:19.690Z,101339.63
2023-05-01T03:51:48.174Z,101341.59
2023-05-01T03:54:16.743Z,101335.44
2023-05-01T03:56:45.338Z,101327.25
2023-05-01T03:59:14.365Z,101336.88
2023-05-01T04:01:42.745Z,101331.38
2023-05-01T04:04:11.292Z,101321.25
2023-05-01T04:06:40.003Z,101323.78
2023-05-01T04:09:08.561Z,101325.09
2023-05-01T04:11:37.023Z,101324.09
2023-05-01T04:14:05.538Z,101312.59
2023-05-01T04:16:34.335Z,101324.38
2023-05-01T04:19:02.993Z,101330.97
2023-05-01T04:21:31.642Z,101322.19
2023-05-01T04:24:00.141Z,101330.06
2023-05-01T04:26:29.289Z,101322.53
2023-05-01T04:28:57.755Z,101327.16
2023-05-01T04:31:26.357Z,101328.91
2023-05-01T04:33:54.800Z,101349.00
2023-05-01T04:36:23.469Z,101334.00
2023-05-01T04:38:52.349Z,101331.25
2023-05-01T04:41:21.799Z,101333.75
2023-05-01T04:43:50.699Z,101341.97
2023-05-01T04:46:19.321Z,101338.09
2023-05-01T04:48:47.830Z,101325.53
2023-05-01T04:51:16.937Z,101337.94
2023-05-01T04:53:45.404Z,101330.66
2023-05-01T04:56:13.911Z,101329.88
2023-05-01T04:58:42.596Z,101330.09
2023-05-01T05:01:11.235Z,101329.72
2023-05-01T05:03:40.481Z,101330.66
2023-05-01T05:06:09.317Z,101336.00
2023-05-01T05:08:37.693Z,101328.31
2023-05-01T05:11:06.377Z,101333.91
2023-05-01T05:13:34.834Z,101331.28
2023-05-01T05:16:04.731Z,101326.78
2023-05-01T05:18:33.195Z,101331.41
2023-05-01T05:21:05.800Z,101330.91
2023-05-01T05:23:34.545Z,101325.56
2023-05-01T05:26:03.619Z,101320.53
2023-05-01T05:28:32.066Z,101319.47
2023-05-01T05:31:00.527Z,101314.25
2023-05-01T05:33:29.131Z,101324.00
2023-05-01T05:35:59.950Z,101308.91
2023-05-01T05:38:28.378Z,101316.97
2023-05-01T05:40:57.621Z,101317.59
2023-05-01T05:43:27.976Z,101324.03
2023-05-01T05:45:58.539Z,101319.97
2023-05-01T05:48:27.767Z,101325.94
2023-05-01T05:50:56.883Z,101328.34
2023-05-01T05:53:26.282Z,101325.44
2023-05-01T05:55:55.002Z,101315.53
2023-05-01T05:58:24.703Z,101315.59
2023-05-01T06:00:54.601Z,101305.69
2023-05-01T06:03:23.334Z,101307.03
2023-05-01T06:05:52.225Z,101312.19
2023-05-01T06:08:21.220Z,101312.13
2023-05-01T06:10:49.722Z,101319.09
2023-05-01T06:13:18.206Z,101323.25
2023-05-01T06:15:46.844Z,101322.25
2023-05-01T06:18:15.635Z,101313.16
2023-05-01T06:20:44.107Z,101324.97
2023-05-01T06:23:13.801Z,101322.69
2023-05-01T06:25:42.835Z,101317.13
2023-05-01T06:28:11.399Z,101318.56
2023-05-01T06:30:39.893Z,101320.19
2023-05-01T06:33:09.944Z,101325.63
2023-05-01T06:35:41.496Z,101320.06
2023-05-01T06:38:10.044Z,101313.28
2023-05-01T06:40:38.679Z,101315.34
2023-05-01T06:43:07.276Z,101317.47
2023-05-01T06:45:35.831Z,101316.78
2023-05-01T06:48:04.714Z,101304.59
2023-05-01T06:50:33.249Z,101308.16
2023-05-01T06:53:02.784Z,101306.56
2023-05-01T06:55:33.263Z,101303.78
2023-05-01T06:58:04.842Z,101312.84
2023-05-01T07:00:41.035Z,101310.72
2023-05-01T07:03:09.741Z,101309.91
2023-05-01T07:05:40.269Z,101314.75
2023-05-01T07:08:09.616Z,101312.78
2023-05-01T07:10:39.885Z,101305.72
2023-05-01T07:13:10.457Z,101301.88
2023-05-01T07:15:39.197Z,101308.97
2023-05-01T07:18:07.766Z,101309.72
2023-05-01T07:20:36.764Z,101309.53
2023-05-01T07:23:07.495Z,101313.78
2023-05-01T07:25:41.449Z,101310.59
2023-05-01T07:28:10.005Z,101300.41
2023-05-01T07:30:38.583Z,101307.38
2023-05-01T07:33:07.096Z,101312.56
2023-05-01T07:35:35.625Z,101317.81
2023-05-01T07:38:04.530Z,101323.22
2023-05-01T07:40:34.947Z,101318.53
2023-05-01T07:43:04.377Z,101308.28
2023-05-01T07:45:32.987Z,101320.91
2023-05-01T07:48:01.737Z,101313.28
2023-05-01T07:50:30.923Z,101317.91
2023-05-01T07:52:59.428Z,101318.59
2023-05-01T07:55:27.873Z,101313.75
2023-05-01T07:57:56.411Z,101314.25
2023-05-01T08:00:25.093Z,101312.28
2023-05-01T08:02:53.753Z,101312.34
2023-05-01T08:05:22.357Z,101305.94
2023-05-01T08:07:50.929Z,101308.59
2023-05-01T08:10:19.549Z,101303.78
2023-05-01T08:12:47.973Z,101301.16
2023-05-01T08:15:16.856Z,101306.84
2023-05-01T08:17:46.853Z,101313.81
2023-05-01T08:20:15.515Z,101306.34
2023-05-01T08:22:43.935Z,101302.91
2023-05-01T08:25:12.503Z,101308.59
2023-05-01T08:27:41.002Z,101302.06
2023-05-01T08:30:10.860Z,101304.16
2023-05-01T08:32:39.466Z,101303.47
2023-05-01T08:35:08.208Z,101305.91
2023-05-01T08:37:36.804Z,101302.69
2023-05-01T08:40:08.812Z,101298.81
2023-05-01T08:42:38.975Z,101301.00
2023-05-01T08:45:09.302Z,101304.88
2023-05-01T08:47:39.810Z,101306.81
2023-05-01T08:50:13.506Z,101308.22
2023-05-01T08:52:45.144Z,101309.81
2023-05-01T08:55:15.312Z,101315.94
2023-05-01T08:57:48.497Z,101311.75
2023-05-01T09:00:19.647Z,101318.56
2023-05-01T09:02:49.836Z,101311.59
2023-05-01T09:05:19.835Z,101307.00
2023-05-01T09:07:48.675Z,101306.72
2023-05-01T09:10:19.023Z,101309.84
2023-05-01T09:12:55.131Z,101309.03
2023-05-01T09:15:26.996Z,101313.69
2023-05-01T09:17:56.876Z,101312.34
2023-05-01T09:20:25.921Z,101316.16
2023-05-01T09:22:57.214Z,101306.88
2023-05-01T09:25:25.663Z,101307.59
2023-05-01T09:27:54.648Z,101306.56
2023-05-01T09:30:30.852Z,101314.66
2023-05-01T09:33:10.680Z,101296.88
2023-05-01T09:35:51.568Z,101304.97
2023-05-01T09:38:22.775Z,101303.88
2023-05-01T09:40:53.498Z,101297.00
2023-05-01T09:43:29.478Z,101303.09
2023-05-01T09:46:09.724Z,101298.97
2023-05-01T09:48:38.851Z,101303.66
2023-05-01T09:51:20.483Z,101296.00
2023-05-01T09:53:49.649Z,101302.03
2023-05-01T09:56:19.194Z,101303.41
2023-05-01T09:58:50.440Z,101308.19
2023-05-01T10:01:37.160Z,101305.91
2023-05-01T10:04:06.722Z,101309.28
2023-05-01T10:06:36.645Z,101311.78
2023-05-01T10:09:16.671Z,101302.41
2023-05-01T10:11:52.083Z,101302.03
2023-05-01T10:14:21.940Z,101304.66
2023-05-01T10:16:54.295Z,101308.56
2023-05-01T10:19:23.096Z,101305.75
2023-05-01T10:21:52.492Z,101309.22
2023-05-01T10:24:21.609Z,101309.03
2023-05-01T10:26:51.238Z,101304.81
2023-05-01T10:29:23.305Z,101315.94
2023-05-01T10:31:51.995Z,101313.59
2023-05-01T10:34:24.194Z,101308.63
2023-05-01T10:37:04.693Z,101318.50
2023-05-01T10:39:36.777Z,101315.94
2023-05-01T10:42:08.587Z,101308.13
2023-05-01T10:44:37.738Z,101314.84
2023-05-01T10:47:24.835Z,101320.13
2023-05-01T10:50:15.775Z,101319.22
2023-05-01T10:53:12.485Z,101322.84
2023-05-01T10:55:46.169Z,101318.97
2023-05-01T10:58:37.381Z,101324.22
2023-05-01T11:01:28.180Z,101319.63
2023-05-01T11:03:58.117Z,101314.31
2023-05-01T11:06:27.939Z,101315.22
2023-05-01T11:08:57.470Z,101316.50
2023-05-01T11:11:26.702Z,101315.41
2023-05-01T11:13:59.784Z,101311.97
2023-05-01T11:16:40.642Z,101320.25
2023-05-01T11:19:22.583Z,101323.38
2023-05-01T11:21:51.708Z,101320.06
2023-05-01T11:24:20.128Z,101316.47
2023-05-01T11:26:48.800Z,101329.06
2023-05-01T11:29:17.897Z,101329.81
2023-05-01T11:31:48.496Z,101331.81
2023-05-01T11:34:17.771Z,101329.13
2023-05-01T11:36:52.035Z,101338.94
2023-05-01T11:39:20.573Z,101332.19
2023-05-01T11:41:49.408Z,101321.81
2023-05-01T11:44:18.429Z,101328.69
2023-05-01T11:46:57.541Z,101334.44
2023-05-01T11:49:29.052Z,101333.47
2023-05-01T11:51:58.349Z,101323.31
2023-05-01T11:54:27.117Z,101330.28
2023-05-01T11:57:00.830Z,101324.88
2023-05-01T11:59:30.594Z,101330.69
2023-05-01T12:01:59.337Z,101332.31
2023-05-01T12:04:32.090Z,101325.03
2023-05-01T12:07:01.264Z,101330.56
2023-05-01T12:09:30.156Z,101332.31
2023-05-01T12:12:00.968Z,101325.63
2023-05-01T12:14:30.617Z,101339.34
2023-05-01T12:17:00.078Z,101330.31
2023-05-01T12:19:28.663Z,101324.81
2023-05-01T12:22:09.729Z,101326.56
2023-05-01T12:24:38.331Z,101340.03
2023-05-01T12:27:08.840Z,101326.41
2023-05-01T12:29:41.510Z,101324.16
2023-05-01T12:32:10.248Z,101320.47
2023-05-01T12:34:39.914Z,101320.00
2023-05-01T12:37:09.479Z,101316.88
2023-05-01T12:39:44.577Z,101325.44
2023-05-01T12:42:14.748Z,101316.91
2023-05-01T12:44:43.741Z,101326.16
2023-05-01T12:47:12.890Z,101322.84
2023-05-01T12:49:41.618Z,101324.63
2023-05-01T12:52:10.299Z,101333.63
2023-05-01T12:54:40.579Z,101327.97
2023-05-01T12:57:10.843Z,101333.69
2023-05-01T12:59:40.989Z,101326.31
2023-05-01T13:02:15.947Z,101332.28
2023-05-01T13:04:46.433Z,101337.19
2023-05-01T13:07:17.008Z,101334.72
2023-05-01T13:09:57.566Z,101335.88
2023-05-01T13:12:27.630Z,101342.53
2023-05-01T13:14:57.067Z,101344.13
2023-05-01T13:17:32.946Z,101331.53
2023-05-01T13:20:03.988Z,101334.22
2023-05-01T13:22:37.354Z,101326.91
2023-05-01T13:25:17.247Z,101339.13
2023-05-01T13:27:50.587Z,101336.41
2023-05-01T13:30:30.610Z,101341.81
2023-05-01T13:32:59.477Z,101325.69
2023-05-01T13:35:28.179Z,101333.09
2023-05-01T13:37:56.900Z,101335.38
2023-05-01T13:40:27.635Z,101334.69
2023-05-01T13:42:56.210Z,101342.88
2023-05-01T13:45:24.965Z,101344.00
2023-05-01T13:47:55.201Z,101347.28
2023-05-01T13:50:24.815Z,101349.44
2023-05-01T13:52:53.298Z,101343.13
2023-05-01T13:55:23.090Z,101350.44
2023-05-01T13:57:51.662Z,101351.28
2023-05-01T14:00:20.662Z,101355.63
2023-05-01T14:02:49.710Z,101359.00
2023-05-01T14:05:30.651Z,101358.44
2023-05-01T14:07:59.478Z,101361.22
2023-05-01T14:10:29.589Z,101369.19
2023-05-01T14:12:59.043Z,101357.63
2023-05-01T14:15:28.849Z,101363.97
2023-05-01T14:17:58.930Z,101364.75
2023-05-01T14:20:27.613Z,101358.06
2023-05-01T14:22:56.141Z,101370.16
2023-05-01T14:25:31.325Z,101367.69
2023-05-01T14:28:01.599Z,101366.72
2023-05-01T14:30:37.153Z,101365.56
2023-05-01T14:33:13.087Z,101363.41
2023-05-01T14:35:51.800Z,101368.19
2023-05-01T14:38:25.687Z,101358.84
2023-05-01T14:40:54.174Z,101361.78
2023-05-01T14:43:22.589Z,101358.25
2023-05-01T14:45:51.287Z,101354.56
2023-05-01T14:48:30.112Z,101343.13
2023-05-01T14:50:59.460Z,101363.94
2023-05-01T14:53:32.305Z,101358.47
2023-05-01T14:56:00.891Z,101368.47
2023-05-01T14:58:29.378Z,101363.56
2023-05-01T15:00:58.069Z,101368.69
2023-05-01T15:03:27.244Z,101381.56
2023-05-01T15:05:56.773Z,101383.47
2023-05-01T15:08:25.341Z,101386.66
2023-05-01T15:10:53.906Z,101381.78
2023-05-01T15:13:22.689Z,101386.72
2023-05-01T15:15:51.600Z,101393.91
2023-05-01T15:18:20.042Z,101387.50
2023-05-01T15:20:48.523Z,101387.69
2023-05-01T15:23:17.117Z,101386.03
2023-05-01T15:25:47.633Z,101388.84
2023-05-01T15:28:16.234Z,101398.91
2023-05-01T15:30:46.861Z,101390.59
2023-05-01T15:33:18.005Z,101396.09
2023-05-01T15:35:48.735Z,101396.59
2023-05-01T15:38:17.455Z,101390.59
2023-05-01T15:40:46.135Z,101395.56
2023-05-01T15:43:14.648Z,101396.47
2023-05-01T15:45:44.580Z,101398.00
2023-05-01T15:48:13.220Z,101387.31
2023-05-01T15:50:41.817Z,101391.84
2023-05-01T15:53:10.396Z,101389.59
2023-05-01T15:55:38.979Z,101396.31
2023-05-01T15:58:07.567Z,101399.09
2023-05-01T16:00:38.093Z,101396.25
2023-05-01T16:03:08.284Z,101401.47
2023-05-01T16:05:38.331Z,101401.50
2023-05-01T16:08:07.483Z,101401.09
2023-05-01T16:10:38.832Z,101404.38
2023-05-01T16:13:07.775Z,101401.75
2023-05-01T16:15:37.362Z,101402.75
2023-05-01T16:18:06.301Z,101409.25
2023-05-01T16:20:42.505Z,101410.88
2023-05-01T16:23:12.071Z,101412.22
2023-05-01T16:25:43.830Z,101422.69
2023-05-01T16:28:13.029Z,101418.94
2023-05-01T16:30:45.730Z,101417.25
2023-05-01T16:33:18.447Z,101417.78
2023-05-01T16:35:51.418Z,101421.16
2023-05-01T16:38:19.986Z,101420.19
2023-05-01T16:40:48.672Z,101427.50
2023-05-01T16:43:17.387Z,101433.31
2023-05-01T16:45:47.007Z,101439.22
2023-05-01T16:48:23.431Z,101440.84
2023-05-01T16:50:52.314Z,101446.31
2023-05-01T16:53:21.375Z,101455.59
2023-05-01T16:55:49.756Z,101448.31
2023-05-01T16:58:18.426Z,101443.53
2023-05-01T17:00:46.972Z,101455.31
2023-05-01T17:03:16.068Z,101452.03
2023-05-01T17:05:44.692Z,101445.69
2023-05-01T17:08:13.094Z,101452.75
2023-05-01T17:10:41.606Z,101455.69
2023-05-01T17:13:10.149Z,101449.09
2023-05-01T17:15:38.597Z,101450.66
2023-05-01T17:18:07.191Z,101455.41
2023-05-01T17:20:36.100Z,101453.03
2023-05-01T17:23:04.876Z,101460.66
2023-05-01T17:25:33.393Z,101452.53
2023-05-01T17:28:01.943Z,101460.22
2023-05-01T17:30:30.373Z,101465.34
2023-05-01T17:32:58.940Z,101466.81
2023-05-01T17:35:27.717Z,101471.78
2023-05-01T17:37:56.272Z,101466.97
2023-05-01T17:40:24.772Z,101465.25
2023-05-01T17:42:53.352Z,101470.84
2023-05-01T17:45:21.904Z,101473.72
2023-05-01T17:47:52.688Z,101466.66
2023-05-01T17:50:21.219Z,101460.81
2023-05-01T17:52:49.678Z,101472.38
2023-05-01T17:55:18.606Z,101483.50
2023-05-01T17:57:47.627Z,101490.84
2023-05-01T18:00:16.814Z,101480.16
2023-05-01T18:02:46.575Z,101486.28
2023-05-01T18:05:15.397Z,101486.78
2023-05-01T18:07:44.430Z,101491.59
2023-05-01T18:10:12.898Z,101493.75
2023-05-01T18:12:41.478Z,101498.97
2023-05-01T18:15:10.349Z,101500.38
2023-05-01T18:17:38.763Z,101498.97
2023-05-01T18:20:07.777Z,101508.34
2023-05-01T18:22:36.433Z,101503.97
2023-05-01T18:25:06.284Z,101508.94
2023-05-01T18:27:37.386Z,101508.72
2023-05-01T18:30:06.629Z,101519.19
2023-05-01T18:32:46.762Z,101519.16
2023-05-01T18:35:17.750Z,101522.28
2023-05-01T18:37:47.107Z,101524.06
2023-05-01T18:40:15.625Z,101528.97
2023-05-01T18:42:44.107Z,101525.53
2023-05-01T18:45:13.889Z,101541.44
2023-05-01T18:47:42.521Z,101548.94
2023-05-01T18:50:11.501Z,101543.44
2023-05-01T18:52:41.699Z,101555.31
2023-05-01T18:55:11.629Z,101559.47
2023-05-01T18:57:44.111Z,101558.72
2023-05-01T19:00:21.124Z,101556.22
2023-05-01T19:02:53.018Z,101555.53
2023-05-01T19:05:22.729Z,101559.13
2023-05-01T19:07:51.769Z,101568.13
2023-05-01T19:10:20.348Z,101559.94
2023-05-01T19:12:49.207Z,101564.47
2023-05-01T19:15:17.816Z,101573.09
2023-05-01T19:17:46.355Z,101569.69
2023-05-01T19:20:14.820Z,101571.13
2023-05-01T19:22:43.526Z,101576.75
2023-05-01T19:25:11.993Z,101580.19
2023-05-01T19:27:41.518Z,101596.00
2023-05-01T19:30:10.565Z,101594.06
2023-05-01T19:32:39.144Z,101603.34
2023-05-01T19:35:11.464Z,101594.31
2023-05-01T19:37:39.923Z,101596.66
2023-05-01T19:40:08.737Z,101605.53
2023-05-01T19:42:37.365Z,101607.63
2023-05-01T19:45:06.401Z,101607.00
2023-05-01T19:47:35.148Z,101603.09
2023-05-01T19:50:04.652Z,101608.53
2023-05-01T19:52:33.150Z,101612.56
2023-05-01T19:55:04.047Z,101625.16
2023-05-01T19:57:33.770Z,101622.38
2023-05-01T20:00:02.405Z,101622.06
2023-05-01T20:02:31.177Z,101627.19
2023-05-01T20:04:59.829Z,101630.03
2023-05-01T20:07:30.230Z,101634.25
2023-05-01T20:09:59.036Z,101637.66
2023-05-01T20:12:27.972Z,101643.03
2023-05-01T20:14:56.909Z,101640.00
2023-05-01T20:17:25.346Z,101651.63
2023-05-01T20:19:53.830Z,101651.75
2023-05-01T20:22:22.291Z,101660.56
2023-05-01T20:24:50.770Z,101656.50
2023-05-01T20:27:19.431Z,101660.09
2023-05-01T20:29:48.254Z,101658.56
2023-05-01T20:32:17.723Z,101666.78
2023-05-01T20:34:46.172Z,101662.16
2023-05-01T20:37:14.571Z,101665.59
2023-05-01T20:39:43.000Z,101663.25
2023-05-01T20:42:11.483Z,101673.44
2023-05-01T20:44:39.985Z,101679.34
2023-05-01T20:47:09.749Z,101677.31
2023-05-01T20:49:38.240Z,101679.91
2023-05-01T20:52:06.682Z,101678.13
2023-05-01T20:54:35.269Z,101680.78
2023-05-01T20:57:04.000Z,101685.88
2023-05-01T20:59:32.689Z,101690.75
2023-05-01T21:02:05.265Z,101687.84
2023-05-01T21:04:33.876Z,101689.16
2023-05-01T21:07:02.360Z,101676.06
2023-05-01T21:09:30.714Z,101674.78
2023-05-01T21:11:59.398Z,101683.75
2023-05-01T21:14:28.079Z,101693.03
2023-05-01T21:16:56.474Z,101689.88
2023-05-01T21:19:24.879Z,101685.78
2023-05-01T21:21:55.176Z,101690.59
2023-05-01T21:24:25.684Z,101693.31
2023-05-01T21:26:54.640Z,101693.63
2023-05-01T21:29:23.020Z,101692.09
2023-05-01T21:31:51.610Z,101695.91
2023-05-01T21:34:20.158Z,101698.97
2023-05-01T21:36:49.234Z,101695.94
2023-05-01T21:39:17.815Z,101701.28
2023-05-01T21:41:48.413Z,101711.56
2023-05-01T21:44:17.764Z,101716.06
2023-05-01T21:46:46.202Z,101717.25
2023-05-01T21:49:18.552Z,101719.59
2023-05-01T21:51:47.041Z,101723.97
2023-05-01T21:54:17.086Z,101717.78
2023-05-01T21:56:45.709Z,101730.06
2023-05-01T21:59:14.422Z,101725.31
2023-05-01T22:01:44.601Z,101727.56
2023-05-01T22:04:18.017Z,101724.38
2023-05-01T22:06:46.618Z,101722.69
2023-05-01T22:09:15.278Z,101727.72
2023-05-01T22:11:43.714Z,101728.25
2023-05-01T22:14:12.157Z,101731.53
2023-05-01T22:16:41.336Z,101735.44
2023-05-01T22:19:09.837Z,101733.72
2023-05-01T22:21:38.879Z,101728.41
2023-05-01T22:24:07.397Z,101729.28
2023-05-01T22:26:35.998Z,101736.16
2023-05-01T22:29:04.548Z,101729.19
2023-05-01T22:31:33.409Z,101733.69
2023-05-01T22:34:01.969Z,101737.56
2023-05-01T22:36:31.484Z,101748.16
2023-05-01T22:38:59.877Z,101751.69
2023-05-01T22:41:28.428Z,101744.50
2023-05-01T22:43:57.243Z,101746.78
2023-05-01T22:46:25.795Z,101746.53
2023-05-01T22:48:54.382Z,101750.72
2023-05-01T22:51:22.804Z,101759.47
2023-05-01T22:53:51.304Z,101767.72
2023-05-01T22:56:19.924Z,101766.72
2023-05-01T22:58:48.526Z,101766.28
2023-05-01T23:01:17.110Z,101771.66
2023-05-01T23:03:45.696Z,101773.38
2023-05-01T23:06:14.447Z,101761.97
2023-05-01T23:08:42.894Z,101772.66
2023-05-01T23:11:11.964Z,101777.06
2023-05-01T23:13:43.466Z,101780.63
2023-05-01T23:16:15.464Z,101784.19
2023-05-01T23:18:45.068Z,101789.88
2023-05-01T23:21:16.637Z,101799.84
2023-05-01T23:23:46.625Z,101797.13
2023-05-01T23:26:33.198Z,101797.06
2023-05-01T23:29:01.656Z,101800.53
2023-05-01T23:31:30.144Z,101795.38
2023-05-01T23:34:02.150Z,101790.22
2023-05-01T23:36:31.156Z,101799.00
2023-05-01T23:38:59.488Z,101803.47
2023-05-01T23:41:28.312Z,101811.53
2023-05-01T23:43:56.798Z,101808.75
2023-05-01T23:46:25.348Z,101805.63
2023-05-01T23:48:53.868Z,101811.47
2023-05-01T23:51:22.455Z,101807.44
2023-05-01T23:53:50.997Z,101804.69
2023-05-01T23:56:19.499Z,101811.38
2023-05-01T23:58:48.023Z,101812.63
